createdAt,value
2023-01-19T00:01:19.535Z,-4.25
2023-01-19T00:03:45.945Z,-4.30
2023-01-19T00:06:12.591Z,-4.35
2023-01-19T00:08:39.622Z,-4.41
2023-01-19T00:11:06.002Z,-4.46
2023-01-19T00:13:32.387Z,-4.49
2023-01-19T00:15:58.965Z,-4.49
2023-01-19T00:18:25.456Z,-4.44
2023-01-19T00:20:51.972Z,-4.37
2023-01-19T00:23:19.488Z,-4.34
2023-01-19T00:25:46.113Z,-4.31
2023-01-19T00:28:12.752Z,-4.30
2023-01-19T00:30:40.751Z,-4.29
2023-01-19T00:33:07.542Z,-4.25
2023-01-19T00:35:35.967Z,-4.33
2023-01-19T00:38:03.173Z,-4.57
2023-01-19T00:40:29.577Z,-4.70
2023-01-19T00:42:56.617Z,-4.83
2023-01-19T00:45:23.540Z,-4.86
2023-01-19T00:47:49.913Z,-4.86
2023-01-19T00:50:16.291Z,-4.90
2023-01-19T00:52:42.708Z,-4.94
2023-01-19T00:55:09.181Z,-5.02
2023-01-19T00:57:35.598Z,-5.09
2023-01-19T01:00:05.343Z,-5.13
2023-01-19T01:02:33.349Z,-5.09
2023-01-19T01:05:00.183Z,-5.07
2023-01-19T01:07:28.649Z,-5.04
2023-01-19T01:09:55.042Z,-5.09
2023-01-19T01:12:21.443Z,-5.17
2023-01-19T01:14:48.013Z,-5.25
2023-01-19T01:17:14.984Z,-5.31
2023-01-19T01:19:42.044Z,-5.36
2023-01-19T01:22:08.379Z,-5.42
2023-01-19T01:24:35.651Z,-5.44
2023-01-19T01:27:02.043Z,-5.42
2023-01-19T01:29:28.401Z,-5.41
2023-01-19T01:31:57.312Z,-5.46
2023-01-19T01:34:23.745Z,-5.66
2023-01-19T01:36:52.518Z,-5.71
2023-01-19T01:39:19.131Z,-5.71
2023-01-19T01:41:45.684Z,-5.68
2023-01-19T01:44:13.733Z,-5.76
2023-01-19T01:46:41.120Z,-5.76
2023-01-19T01:49:07.458Z,-5.73
2023-01-19T01:51:34.035Z,-5.69
2023-01-19T01:54:00.423Z,-5.65
2023-01-19T01:56:27.512Z,-5.65
2023-01-19T01:58:53.917Z,-5.66
2023-01-19T02:01:20.419Z,-5.80
2023-01-19T02:03:47.069Z,-5.87
2023-01-19T02:06:13.409Z,-5.84
2023-01-19T02:08:39.793Z,-5.81
2023-01-19T02:11:06.153Z,-5.73
2023-01-19T02:13:32.609Z,-5.67
2023-01-19T02:15:58.992Z,-5.68
2023-01-19T02:18:25.373Z,-5.73
2023-01-19T02:20:51.755Z,-5.77
2023-01-19T02:23:18.079Z,-5.74
2023-01-19T02:25:44.452Z,-5.71
2023-01-19T02:28:10.825Z,-5.75
2023-01-19T02:30:37.704Z,-5.84
2023-01-19T02:33:04.108Z,-5.86
2023-01-19T02:35:30.441Z,-5.94
2023-01-19T02:37:56.880Z,-5.95
2023-01-19T02:40:23.430Z,-5.99
2023-01-19T02:42:50.053Z,-5.99
2023-01-19T02:45:16.393Z,-6.05
2023-01-19T02:47:42.732Z,-6.11
2023-01-19T02:50:09.116Z,-6.15
2023-01-19T02:52:35.480Z,-6.11
2023-01-19T02:55:02.876Z,-6.12
2023-01-19T02:57:29.225Z,-6.18
2023-01-19T02:59:55.563Z,-6.24
2023-01-19T03:02:22.245Z,-6.28
2023-01-19T03:04:48.872Z,-6.33
2023-01-19T03:07:15.255Z,-6.33
2023-01-19T03:09:41.652Z,-6.37
2023-01-19T03:12:08.011Z,-6.39
2023-01-19T03:14:34.342Z,-6.42
2023-01-19T03:17:00.684Z,-6.46
2023-01-19T03:19:28.068Z,-6.48
2023-01-19T03:21:54.451Z,-6.46
2023-01-19T03:24:20.796Z,-6.49
2023-01-19T03:26:47.481Z,-6.50
2023-01-19T03:29:15.049Z,-6.47
2023-01-19T03:31:42.505Z,-6.47
2023-01-19T03:34:10.574Z,-6.44
2023-01-19T03:36:36.910Z,-6.47
2023-01-19T03:39:03.555Z,-6.50
2023-01-19T03:41:29.921Z,-6.54
2023-01-19T03:43:56.302Z,-6.55
2023-01-19T03:46:22.699Z,-6.60
2023-01-19T03:48:50.155Z,-6.59
2023-01-19T03:51:16.567Z,-6.66
2023-01-19T03:53:43.024Z,-6.69
2023-01-19T03:56:09.390Z,-6.63
2023-01-19T03:58:35.768Z,-6.63
2023-01-19T04:01:02.198Z,-6.62
2023-01-19T04:03:29.111Z,-6.64
2023-01-19T04:05:55.477Z,-6.64
2023-01-19T04:08:22.885Z,-6.75
2023-01-19T04:10:49.344Z,-6.82
2023-01-19T04:13:15.687Z,-6.79
2023-01-19T04:15:42.633Z,-6.79
2023-01-19T04:18:11.557Z,-6.86
2023-01-19T04:20:37.948Z,-7.13
2023-01-19T04:23:04.599Z,-7.28
2023-01-19T04:25:31.009Z,-7.27
2023-01-19T04:27:57.523Z,-7.21
2023-01-19T04:30:24.530Z,-7.14
2023-01-19T04:32:50.907Z,-7.07
2023-01-19T04:35:17.244Z,-7.00
2023-01-19T04:37:44.616Z,-7.01
2023-01-19T04:40:11.120Z,-7.03
2023-01-19T04:42:37.600Z,-7.04
2023-01-19T04:45:03.982Z,-7.00
2023-01-19T04:47:30.329Z,-6.96
2023-01-19T04:50:01.307Z,-6.93
2023-01-19T04:52:27.633Z,-6.98
2023-01-19T04:54:54.074Z,-6.93
2023-01-19T04:57:20.461Z,-6.87
2023-01-19T04:59:49.406Z,-6.82
2023-01-19T05:02:16.833Z,-6.80
2023-01-19T05:04:43.395Z,-6.68
2023-01-19T05:07:09.770Z,-6.99
2023-01-19T05:09:36.151Z,-7.13
2023-01-19T05:12:02.616Z,-7.21
2023-01-19T05:14:30.238Z,-7.33
2023-01-19T05:17:03.273Z,-7.37
2023-01-19T05:19:29.723Z,-7.36
2023-01-19T05:21:56.464Z,-7.36
2023-01-19T05:24:25.300Z,-7.35
2023-01-19T05:26:51.788Z,-7.31
2023-01-19T05:29:20.423Z,-7.41
2023-01-19T05:31:47.047Z,-7.49
2023-01-19T05:34:13.440Z,-7.45
2023-01-19T05:36:39.880Z,-7.48
2023-01-19T05:39:06.266Z,-7.51
2023-01-19T05:41:33.049Z,-7.55
2023-01-19T05:43:59.402Z,-7.57
2023-01-19T05:46:25.989Z,-7.58
2023-01-19T05:48:52.581Z,-7.57
2023-01-19T05:51:19.302Z,-7.53
2023-01-19T05:53:45.679Z,-7.53
2023-01-19T05:56:12.368Z,-7.54
2023-01-19T05:58:38.750Z,-7.30
2023-01-19T06:01:05.164Z,-7.24
2023-01-19T06:03:31.591Z,-7.21
2023-01-19T06:05:57.994Z,-7.28
2023-01-19T06:08:24.385Z,-7.46
2023-01-19T06:10:50.781Z,-7.73
2023-01-19T06:13:17.283Z,-7.75
2023-01-19T06:15:43.935Z,-7.68
2023-01-19T06:18:10.586Z,-7.64
2023-01-19T06:20:36.951Z,-7.54
2023-01-19T06:23:03.852Z,-7.50
2023-01-19T06:25:30.400Z,-7.44
2023-01-19T06:27:56.736Z,-7.33
2023-01-19T06:30:23.210Z,-7.23
2023-01-19T06:32:49.587Z,-7.18
2023-01-19T06:35:16.231Z,-7.22
2023-01-19T06:37:42.747Z,-7.30
2023-01-19T06:40:09.153Z,-7.35
2023-01-19T06:42:35.531Z,-7.38
2023-01-19T06:45:01.883Z,-7.42
2023-01-19T06:47:28.236Z,-7.42
2023-01-19T06:49:55.804Z,-7.47
2023-01-19T06:52:22.232Z,-7.55
2023-01-19T06:54:49.783Z,-7.63
2023-01-19T06:57:16.618Z,-7.61
2023-01-19T06:59:43.912Z,-7.63
2023-01-19T07:02:27.620Z,-7.64
2023-01-19T07:04:55.054Z,-7.63
2023-01-19T07:07:23.773Z,-7.65
2023-01-19T07:09:51.529Z,-7.59
2023-01-19T07:12:20.864Z,-7.56
2023-01-19T07:14:47.358Z,-7.59
2023-01-19T07:17:13.776Z,-7.65
2023-01-19T07:19:40.340Z,-7.70
2023-01-19T07:22:06.756Z,-7.76
2023-01-19T07:24:33.165Z,-7.78
2023-01-19T07:26:59.659Z,-7.80
2023-01-19T07:29:28.389Z,-7.91
2023-01-19T07:31:55.902Z,-7.91
2023-01-19T07:34:24.856Z,-7.87
2023-01-19T07:36:51.270Z,-7.83
2023-01-19T07:39:17.867Z,-7.83
2023-01-19T07:41:44.246Z,-7.81
2023-01-19T07:44:10.662Z,-7.67
2023-01-19T07:46:37.056Z,-7.56
2023-01-19T07:49:03.543Z,-7.44
2023-01-19T07:51:29.992Z,-7.27
2023-01-19T07:53:56.445Z,-7.24
2023-01-19T07:56:23.659Z,-7.43
2023-01-19T07:58:50.100Z,-7.50
2023-01-19T08:01:16.948Z,-7.54
2023-01-19T08:03:43.405Z,-7.53
2023-01-19T08:06:09.798Z,-7.42
2023-01-19T08:08:36.256Z,-7.30
2023-01-19T08:11:02.724Z,-7.14
2023-01-19T08:13:29.093Z,-7.07
2023-01-19T08:15:55.497Z,-7.11
2023-01-19T08:18:21.920Z,-7.21
2023-01-19T08:20:48.333Z,-7.23
2023-01-19T08:23:14.938Z,-7.23
2023-01-19T08:25:41.493Z,-7.16
2023-01-19T08:28:08.215Z,-7.09
2023-01-19T08:30:34.574Z,-7.00
2023-01-19T08:33:01.323Z,-6.89
2023-01-19T08:35:27.956Z,-6.73
2023-01-19T08:37:54.524Z,-6.74
2023-01-19T08:40:21.907Z,-6.70
2023-01-19T08:42:48.741Z,-6.68
2023-01-19T08:45:15.141Z,-6.62
2023-01-19T08:47:41.528Z,-6.46
2023-01-19T08:50:07.952Z,-6.34
2023-01-19T08:52:34.371Z,-6.18
2023-01-19T08:55:02.741Z,-6.10
2023-01-19T08:57:29.121Z,-5.97
2023-01-19T08:59:55.676Z,-5.78
2023-01-19T09:02:22.742Z,-5.62
2023-01-19T09:04:49.426Z,-5.48
2023-01-19T09:07:15.811Z,-5.33
2023-01-19T09:09:42.192Z,-5.12
2023-01-19T09:12:08.543Z,-4.87
2023-01-19T09:14:34.905Z,-4.62
2023-01-19T09:17:01.353Z,-4.38
2023-01-19T09:19:27.815Z,-4.20
2023-01-19T09:21:54.161Z,-4.06
2023-01-19T09:24:20.685Z,-4.00
2023-01-19T09:26:49.152Z,-3.95
2023-01-19T09:29:15.502Z,-3.76
2023-01-19T09:31:41.947Z,-3.58
2023-01-19T09:34:08.574Z,-3.36
2023-01-19T09:36:34.918Z,-3.15
2023-01-19T09:39:02.332Z,-3.00
2023-01-19T09:41:28.735Z,-2.93
2023-01-19T09:43:55.219Z,-2.87
2023-01-19T09:46:21.661Z,-2.74
2023-01-19T09:48:48.195Z,-2.61
2023-01-19T09:51:14.584Z,-2.50
2023-01-19T09:53:40.975Z,-2.32
2023-01-19T09:56:07.567Z,-2.09
2023-01-19T09:58:33.923Z,-1.95
2023-01-19T10:01:00.442Z,-1.81
2023-01-19T10:03:26.932Z,-1.67
2023-01-19T10:05:53.596Z,-1.51
2023-01-19T10:08:22.137Z,-1.44
2023-01-19T10:10:48.485Z,-1.37
2023-01-19T10:13:14.856Z,-1.20
2023-01-19T10:15:41.204Z,-1.04
2023-01-19T10:18:07.581Z,-0.85
2023-01-19T10:20:34.933Z,-0.68
2023-01-19T10:23:01.556Z,-0.56
2023-01-19T10:25:28.164Z,-0.37
2023-01-19T10:27:54.582Z,-0.28
2023-01-19T10:30:21.128Z,-0.22
2023-01-19T10:32:47.488Z,-0.08
2023-01-19T13:55:29.702Z,2.37
2023-01-19T14:03:37.914Z,2.22
2023-01-19T14:06:22.900Z,2.14
2023-01-19T14:12:02.191Z,2.12
2023-01-19T16:05:07.384Z,-1.06
2023-01-19T16:07:38.553Z,-1.14
2023-01-19T16:18:41.021Z,-1.53
2023-01-19T16:21:07.788Z,-1.61
2023-01-19T16:37:30.610Z,-2.06
2023-01-19T16:48:22.727Z,-2.27
2023-01-19T16:53:30.749Z,-2.44
2023-01-19T17:24:26.907Z,-3.13
2023-01-19T17:26:53.253Z,-3.31
2023-01-19T17:29:19.586Z,-3.49
2023-01-19T17:31:48.990Z,-3.65
2023-01-19T17:34:15.477Z,-3.86
2023-01-19T17:36:42.004Z,-3.93
2023-01-19T17:39:08.357Z,-4.05
2023-01-19T17:41:34.690Z,-4.13
2023-01-19T17:44:01.092Z,-4.24
2023-01-19T17:46:27.835Z,-4.31
2023-01-19T17:48:54.228Z,-4.31
2023-01-19T17:51:20.892Z,-4.29
2023-01-19T17:53:47.764Z,-4.30
2023-01-19T17:56:14.167Z,-4.30
2023-01-19T17:58:40.553Z,-4.31
2023-01-19T18:01:06.993Z,-4.34
2023-01-19T18:03:33.590Z,-4.34
2023-01-19T18:06:00.023Z,-4.37
2023-01-19T18:08:26.452Z,-4.42
2023-01-19T18:10:53.229Z,-4.51
2023-01-19T18:13:19.611Z,-4.52
2023-01-19T18:15:46.027Z,-4.52
2023-01-19T18:18:12.503Z,-4.53
2023-01-19T18:20:38.977Z,-4.53
2023-01-19T18:23:06.811Z,-4.56
2023-01-19T18:25:33.173Z,-4.62
2023-01-19T18:27:59.528Z,-4.72
2023-01-19T18:30:28.181Z,-4.84
2023-01-19T18:32:55.012Z,-4.98
2023-01-19T18:35:21.610Z,-5.02
2023-01-19T18:37:48.331Z,-5.12
2023-01-19T18:40:15.499Z,-5.19
2023-01-19T18:42:42.955Z,-5.22
2023-01-19T18:45:09.464Z,-5.21
2023-01-19T18:47:36.586Z,-5.20
2023-01-19T18:50:02.941Z,-5.22
2023-01-19T18:52:31.693Z,-5.27
2023-01-19T18:55:01.109Z,-5.29
2023-01-19T18:57:27.791Z,-5.28
2023-01-19T18:59:54.462Z,-5.36
2023-01-19T19:02:21.939Z,-5.44
2023-01-19T19:04:55.506Z,-5.55
2023-01-19T19:07:22.906Z,-5.58
2023-01-19T19:09:49.807Z,-5.59
2023-01-19T19:12:18.325Z,-5.60
2023-01-19T19:14:45.754Z,-5.63
2023-01-19T19:17:14.240Z,-5.65
2023-01-19T19:19:40.604Z,-5.66
2023-01-19T19:22:06.951Z,-5.73
2023-01-19T19:24:34.605Z,-5.86
2023-01-19T19:27:00.967Z,-5.97
2023-01-19T19:29:27.696Z,-6.03
2023-01-19T19:31:55.427Z,-6.07
2023-01-19T19:34:30.257Z,-6.16
2023-01-19T19:36:56.947Z,-6.25
2023-01-19T19:39:23.382Z,-6.32
2023-01-19T19:41:50.009Z,-6.40
2023-01-19T19:44:18.490Z,-6.45
2023-01-19T19:46:45.731Z,-6.47
2023-01-19T19:49:12.094Z,-6.48
2023-01-19T19:51:40.481Z,-6.49
2023-01-19T19:54:06.885Z,-6.52
2023-01-19T19:56:33.341Z,-6.56
2023-01-19T19:58:59.880Z,-6.62
2023-01-19T20:01:32.930Z,-6.61
2023-01-19T20:04:00.037Z,-6.68
2023-01-19T20:06:26.726Z,-6.67
2023-01-19T20:08:55.431Z,-6.76
2023-01-19T20:11:21.887Z,-6.83
2023-01-19T20:13:48.307Z,-6.86
2023-01-19T20:16:14.687Z,-6.86
2023-01-19T20:18:43.105Z,-6.88
2023-01-19T20:21:11.721Z,-7.01
2023-01-19T20:23:38.105Z,-7.05
2023-01-19T20:26:04.496Z,-7.01
2023-01-19T20:28:30.979Z,-6.97
2023-01-19T20:30:57.364Z,-6.93
2023-01-19T20:33:23.851Z,-6.90
2023-01-19T20:35:50.325Z,-6.93
2023-01-19T20:38:16.743Z,-6.98
2023-01-19T20:40:43.735Z,-7.10
2023-01-19T20:43:10.539Z,-7.12
2023-01-19T20:45:37.287Z,-7.10
2023-01-19T20:48:03.989Z,-7.23
2023-01-19T20:50:30.381Z,-7.31
2023-01-19T20:52:56.768Z,-7.37
2023-01-19T20:55:23.160Z,-7.40
2023-01-19T20:57:49.831Z,-7.41
2023-01-19T21:00:16.283Z,-7.38
2023-01-19T21:02:42.742Z,-7.31
2023-01-19T21:05:10.167Z,-7.27
2023-01-19T21:07:37.089Z,-7.25
2023-01-19T21:10:03.696Z,-7.28
2023-01-19T21:12:30.364Z,-7.33
2023-01-19T21:15:01.043Z,-7.39
2023-01-19T21:17:27.637Z,-7.42
2023-01-19T21:19:56.055Z,-7.47
2023-01-19T21:22:22.494Z,-7.48
2023-01-19T21:24:48.890Z,-7.52
2023-01-19T21:27:16.248Z,-7.57
2023-01-19T21:29:42.667Z,-7.62
2023-01-19T21:32:09.011Z,-7.64
2023-01-19T21:34:35.422Z,-7.74
2023-01-19T21:37:01.919Z,-7.85
2023-01-19T21:39:28.312Z,-7.86
2023-01-19T21:41:54.727Z,-7.87
2023-01-19T21:44:21.338Z,-7.86
2023-01-19T21:46:47.698Z,-7.85
2023-01-19T21:49:15.450Z,-7.85
2023-01-19T21:51:41.812Z,-7.83
2023-01-19T21:54:08.491Z,-7.85
2023-01-19T21:56:38.024Z,-7.89
2023-01-19T21:59:04.390Z,-7.86
2023-01-19T22:01:30.834Z,-7.84
2023-01-19T22:03:57.733Z,-7.88
2023-01-19T22:06:24.081Z,-7.89
2023-01-19T22:08:50.422Z,-7.87
2023-01-19T22:11:16.766Z,-7.95
2023-01-19T22:13:45.313Z,-7.98
2023-01-19T22:16:11.816Z,-8.02
2023-01-19T22:18:38.245Z,-8.12
2023-01-19T22:21:04.625Z,-8.09
2023-01-19T22:23:31.075Z,-8.10
2023-01-19T22:25:57.436Z,-8.11
2023-01-19T22:28:23.812Z,-8.11
2023-01-19T22:30:51.294Z,-8.17
2023-01-19T22:33:18.077Z,-8.26
2023-01-19T22:35:46.724Z,-8.45
2023-01-19T22:38:13.072Z,-8.52
2023-01-19T22:40:39.442Z,-8.59
2023-01-19T22:43:05.872Z,-8.64
2023-01-19T22:45:32.720Z,-8.70
2023-01-19T22:47:59.187Z,-8.68
2023-01-19T22:50:33.857Z,-8.63
2023-01-19T22:53:00.205Z,-8.60
2023-01-19T22:55:28.863Z,-8.62
2023-01-19T22:57:56.101Z,-8.58
2023-01-19T23:00:22.607Z,-8.66
2023-01-19T23:02:49.191Z,-8.72
2023-01-19T23:05:16.110Z,-8.78
2023-01-19T23:07:42.737Z,-8.86
2023-01-19T23:10:09.554Z,-8.92
2023-01-19T23:12:35.904Z,-8.96
2023-01-19T23:15:02.298Z,-8.96
2023-01-19T23:17:28.910Z,-8.91
2023-01-19T23:20:01.697Z,-8.94
2023-01-19T23:22:28.117Z,-8.95
2023-01-19T23:24:55.563Z,-8.94
2023-01-19T23:27:21.955Z,-8.96
2023-01-19T23:29:55.848Z,-8.92
2023-01-19T23:32:23.219Z,-8.89
2023-01-19T23:34:49.653Z,-8.85
2023-01-19T23:37:18.240Z,-8.80
2023-01-19T23:39:46.635Z,-8.78
2023-01-19T23:42:13.027Z,-8.87
2023-01-19T23:44:39.685Z,-8.86
2023-01-19T23:47:08.100Z,-8.84
2023-01-19T23:49:34.449Z,-8.80
2023-01-19T23:52:01.007Z,-8.83
2023-01-19T23:54:27.672Z,-8.88
2023-01-19T23:56:54.229Z,-8.89
2023-01-19T23:59:22.943Z,-8.89
